sensor_id;sensor_type;location;lat;lon;timestamp;pressure;altitude;pressure_sealevel;temperature;humidity
23016;BME280;11674;52.428;13.584;2023-01-30T00:01:13;101126.31;;;3.83;78.82
23016;BME280;11674;52.428;13.584;2023-01-30T00:06:21;101118.09;;;3.83;78.86
23016;BME280;11674;52.428;13.584;2023-01-30T00:11:28;101101.63;;;3.83;78.73
23016;BME280;11674;52.428;13.584;2023-01-30T00:16:35;101100.19;;;3.80;78.76
23016;BME280;11674;52.428;13.584;2023-01-30T00:21:41;101067.16;;;3.75;78.65
23016;BME280;11674;52.428;13.584;2023-01-30T00:26:49;101048.47;;;3.72;78.50
23016;BME280;11674;52.428;13.584;2023-01-30T00:31:56;101063.59;;;3.75;78.42
23016;BME280;11674;52.428;13.584;2023-01-30T00:37:03;101025.66;;;3.72;78.39
23016;BME280;11674;52.428;13.584;2023-01-30T00:42:09;100996.00;;;3.69;78.38
23016;BME280;11674;52.428;13.584;2023-01-30T00:47:17;100976.19;;;3.67;78.22
23016;BME280;11674;52.428;13.584;2023-01-30T00:52:26;100945.22;;;3.66;78.19
23016;BME280;11674;52.428;13.584;2023-01-30T00:57:34;100916.94;;;3.66;78.34
23016;BME280;11674;52.428;13.584;2023-01-30T01:02:41;100902.50;;;3.70;78.50
23016;BME280;11674;52.428;13.584;2023-01-30T01:07:48;100888.44;;;3.67;78.39
23016;BME280;11674;52.428;13.584;2023-01-30T01:12:54;100889.75;;;3.64;78.52
23016;BME280;11674;52.428;13.584;2023-01-30T01:18:02;100901.22;;;3.61;78.29
23016;BME280;11674;52.428;13.584;2023-01-30T01:23:09;100890.97;;;3.57;78.28
23016;BME280;11674;52.428;13.584;2023-01-30T01:28:17;100850.09;;;3.55;78.37
23016;BME280;11674;52.428;13.584;2023-01-30T01:33:27;100810.41;;;3.58;78.43
23016;BME280;11674;52.428;13.584;2023-01-30T01:38:35;100824.09;;;3.58;78.29
23016;BME280;11674;52.428;13.584;2023-01-30T01:44:09;100822.06;;;3.53;78.12
23016;BME280;11674;52.428;13.584;2023-01-30T01:49:21;100828.63;;;3.52;78.09
23016;BME280;11674;52.428;13.584;2023-01-30T01:59:44;100855.59;;;3.55;77.87
23016;BME280;11674;52.428;13.584;2023-01-30T02:04:56;100812.53;;;3.56;77.83
23016;BME280;11674;52.428;13.584;2023-01-30T02:10:06;100803.22;;;3.57;77.81
23016;BME280;11674;52.428;13.584;2023-01-30T02:15:14;100771.91;;;3.53;77.65
23016;BME280;11674;52.428;13.584;2023-01-30T02:20:56;100752.38;;;3.49;77.53
23016;BME280;11674;52.428;13.584;2023-01-30T02:26:50;100741.88;;;3.46;77.72
23016;BME280;11674;52.428;13.584;2023-01-30T02:32:29;100699.81;;;3.41;77.71
23016;BME280;11674;52.428;13.584;2023-01-30T02:37:48;100701.66;;;3.35;77.66
23016;BME280;11674;52.428;13.584;2023-01-30T02:43:01;100702.22;;;3.37;77.87
23016;BME280;11674;52.428;13.584;2023-01-30T02:48:15;100708.66;;;3.43;78.05
23016;BME280;11674;52.428;13.584;2023-01-30T02:53:24;100688.97;;;3.46;78.29
23016;BME280;11674;52.428;13.584;2023-01-30T02:58:37;100646.50;;;3.48;78.02
23016;BME280;11674;52.428;13.584;2023-01-30T03:14:47;100620.16;;;3.14;78.01
23016;BME280;11674;52.428;13.584;2023-01-30T03:19:57;100627.69;;;3.07;78.11
23016;BME280;11674;52.428;13.584;2023-01-30T03:25:06;100623.03;;;3.08;78.42
23016;BME280;11674;52.428;13.584;2023-01-30T03:30:14;100610.50;;;3.12;78.54
23016;BME280;11674;52.428;13.584;2023-01-30T03:35:22;100586.19;;;3.15;78.57
23016;BME280;11674;52.428;13.584;2023-01-30T03:40:30;100583.06;;;3.23;78.86
23016;BME280;11674;52.428;13.584;2023-01-30T03:45:37;100580.41;;;3.28;78.96
23016;BME280;11674;52.428;13.584;2023-01-30T03:50:44;100603.22;;;3.34;78.75
23016;BME280;11674;52.428;13.584;2023-01-30T03:55:51;100555.06;;;3.38;79.04
23016;BME280;11674;52.428;13.584;2023-01-30T04:01:04;100553.50;;;3.42;79.02
23016;BME280;11674;52.428;13.584;2023-01-30T04:06:11;100560.22;;;3.51;78.87
23016;BME280;11674;52.428;13.584;2023-01-30T04:11:19;100536.63;;;3.50;78.70
23016;BME280;11674;52.428;13.584;2023-01-30T04:16:26;100520.69;;;3.47;78.89
23016;BME280;11674;52.428;13.584;2023-01-30T04:21:52;100519.94;;;3.51;79.00
23016;BME280;11674;52.428;13.584;2023-01-30T04:27:07;100512.13;;;3.60;79.09
23016;BME280;11674;52.428;13.584;2023-01-30T04:32:30;100503.47;;;3.68;79.29
23016;BME280;11674;52.428;13.584;2023-01-30T04:37:37;100500.84;;;3.78;79.19
23016;BME280;11674;52.428;13.584;2023-01-30T04:42:47;100506.72;;;3.86;79.24
23016;BME280;11674;52.428;13.584;2023-01-30T04:48:21;100482.47;;;3.95;79.30
23016;BME280;11674;52.428;13.584;2023-01-30T04:53:30;100467.44;;;4.02;79.16
23016;BME280;11674;52.428;13.584;2023-01-30T04:58:37;100465.03;;;4.06;79.04
23016;BME280;11674;52.428;13.584;2023-01-30T05:03:48;100459.81;;;4.04;79.09
23016;BME280;11674;52.428;13.584;2023-01-30T05:08:56;100445.56;;;4.07;79.08
23016;BME280;11674;52.428;13.584;2023-01-30T05:14:03;100427.44;;;4.06;78.77
23016;BME280;11674;52.428;13.584;2023-01-30T05:19:11;100433.06;;;3.95;78.53
23016;BME280;11674;52.428;13.584;2023-01-30T05:24:18;100422.72;;;3.80;78.50
23016;BME280;11674;52.428;13.584;2023-01-30T05:29:25;100413.00;;;3.68;78.71
23016;BME280;11674;52.428;13.584;2023-01-30T05:34:32;100414.25;;;3.60;78.82
23016;BME280;11674;52.428;13.584;2023-01-30T05:39:39;100406.44;;;3.52;78.76
23016;BME280;11674;52.428;13.584;2023-01-30T05:44:46;100405.56;;;3.47;78.98
23016;BME280;11674;52.428;13.584;2023-01-30T05:49:53;100386.38;;;3.47;79.49
23016;BME280;11674;52.428;13.584;2023-01-30T05:55:00;100378.72;;;3.49;79.56
23016;BME280;11674;52.428;13.584;2023-01-30T06:00:07;100350.81;;;3.52;79.53
23016;BME280;11674;52.428;13.584;2023-01-30T06:05:15;100340.41;;;3.54;79.57
23016;BME280;11674;52.428;13.584;2023-01-30T06:10:22;100353.88;;;3.55;79.80
23016;BME280;11674;52.428;13.584;2023-01-30T06:15:29;100357.75;;;3.59;79.91
23016;BME280;11674;52.428;13.584;2023-01-30T06:20:36;100353.66;;;3.62;80.02
23016;BME280;11674;52.428;13.584;2023-01-30T06:25:44;100347.44;;;3.66;80.05
23016;BME280;11674;52.428;13.584;2023-01-30T06:30:51;100336.84;;;3.75;80.29
23016;BME280;11674;52.428;13.584;2023-01-30T06:35:59;100330.88;;;3.83;80.39
23016;BME280;11674;52.428;13.584;2023-01-30T06:41:06;100366.09;;;3.91;80.31
23016;BME280;11674;52.428;13.584;2023-01-30T06:46:13;100347.25;;;3.99;80.51
23016;BME280;11674;52.428;13.584;2023-01-30T06:51:20;100350.66;;;4.11;80.77
23016;BME280;11674;52.428;13.584;2023-01-30T06:56:27;100344.19;;;4.22;80.73
23016;BME280;11674;52.428;13.584;2023-01-30T07:01:34;100339.06;;;4.31;80.88
23016;BME280;11674;52.428;13.584;2023-01-30T07:06:41;100342.44;;;4.38;80.65
23016;BME280;11674;52.428;13.584;2023-01-30T07:11:48;100325.19;;;4.42;80.73
23016;BME280;11674;52.428;13.584;2023-01-30T07:16:55;100318.06;;;4.46;80.75
23016;BME280;11674;52.428;13.584;2023-01-30T07:22:02;100312.34;;;4.48;80.87
23016;BME280;11674;52.428;13.584;2023-01-30T07:27:10;100294.75;;;4.49;80.92
23016;BME280;11674;52.428;13.584;2023-01-30T07:32:18;100291.72;;;4.50;80.91
23016;BME280;11674;52.428;13.584;2023-01-30T07:37:25;100294.22;;;4.52;80.99
23016;BME280;11674;52.428;13.584;2023-01-30T07:42:32;100290.13;;;4.54;80.92
23016;BME280;11674;52.428;13.584;2023-01-30T07:47:39;100282.75;;;4.60;81.18
23016;BME280;11674;52.428;13.584;2023-01-30T07:52:46;100291.56;;;4.62;81.24
23016;BME280;11674;52.428;13.584;2023-01-30T07:57:53;100296.53;;;4.65;81.29
23016;BME280;11674;52.428;13.584;2023-01-30T08:03:00;100302.84;;;4.65;81.25
23016;BME280;11674;52.428;13.584;2023-01-30T08:08:07;100316.31;;;4.67;81.39
23016;BME280;11674;52.428;13.584;2023-01-30T08:13:14;100309.75;;;4.73;81.68
23016;BME280;11674;52.428;13.584;2023-01-30T08:18:21;100310.06;;;4.76;81.57
23016;BME280;11674;52.428;13.584;2023-01-30T08:23:28;100303.22;;;4.79;81.84
23016;BME280;11674;52.428;13.584;2023-01-30T08:28:35;100295.59;;;4.86;82.08
23016;BME280;11674;52.428;13.584;2023-01-30T08:33:42;100304.69;;;4.91;82.26
23016;BME280;11674;52.428;13.584;2023-01-30T08:38:49;100276.13;;;4.97;82.34
23016;BME280;11674;52.428;13.584;2023-01-30T08:43:56;100278.16;;;5.12;82.13
23016;BME280;11674;52.428;13.584;2023-01-30T08:49:03;100287.28;;;5.22;82.08
23016;BME280;11674;52.428;13.584;2023-01-30T08:54:11;100295.25;;;5.24;82.46
23016;BME280;11674;52.428;13.584;2023-01-30T08:59:18;100292.25;;;5.30;82.52
23016;BME280;11674;52.428;13.584;2023-01-30T09:04:25;100299.72;;;5.40;82.65
23016;BME280;11674;52.428;13.584;2023-01-30T09:09:32;100299.22;;;5.53;82.67
23016;BME280;11674;52.428;13.584;2023-01-30T09:14:39;100298.44;;;5.67;82.76
23016;BME280;11674;52.428;13.584;2023-01-30T09:19:46;100288.38;;;5.83;83.02
23016;BME280;11674;52.428;13.584;2023-01-30T09:24:53;100308.75;;;5.97;82.88
23016;BME280;11674;52.428;13.584;2023-01-30T09:30:00;100302.72;;;6.10;82.87
23016;BME280;11674;52.428;13.584;2023-01-30T09:35:07;100306.88;;;6.22;83.01
23016;BME280;11674;52.428;13.584;2023-01-30T09:40:16;100311.56;;;6.37;83.00
23016;BME280;11674;52.428;13.584;2023-01-30T09:50:58;100309.91;;;6.76;82.98
23016;BME280;11674;52.428;13.584;2023-01-30T09:56:11;100297.22;;;6.90;83.01
23016;BME280;11674;52.428;13.584;2023-01-30T10:01:50;100297.22;;;7.05;83.02
23016;BME280;11674;52.428;13.584;2023-01-30T10:34:26;100282.97;;;7.56;82.43
23016;BME280;11674;52.428;13.584;2023-01-30T10:39:36;100269.34;;;7.75;82.22
23016;BME280;11674;52.428;13.584;2023-01-30T10:44:47;100265.94;;;7.93;82.56
23016;BME280;11674;52.428;13.584;2023-01-30T10:49:59;100266.47;;;8.00;82.28
23016;BME280;11674;52.428;13.584;2023-01-30T11:00:51;100267.22;;;8.05;82.15
23016;BME280;11674;52.428;13.584;2023-01-30T11:06:05;100260.31;;;8.08;81.89
23016;BME280;11674;52.428;13.584;2023-01-30T11:11:52;100242.63;;;8.09;81.91
23016;BME280;11674;52.428;13.584;2023-01-30T11:17:00;100240.66;;;8.14;81.75
23016;BME280;11674;52.428;13.584;2023-01-30T11:22:12;100233.44;;;8.18;81.56
23016;BME280;11674;52.428;13.584;2023-01-30T11:27:32;100222.13;;;8.20;81.38
23016;BME280;11674;52.428;13.584;2023-01-30T11:32:45;100199.47;;;8.23;81.48
23016;BME280;11674;52.428;13.584;2023-01-30T11:38:09;100199.44;;;8.28;81.43
23016;BME280;11674;52.428;13.584;2023-01-30T11:43:17;100188.00;;;8.34;81.22
23016;BME280;11674;52.428;13.584;2023-01-30T11:48:29;100179.72;;;8.34;81.14
23016;BME280;11674;52.428;13.584;2023-01-30T11:53:43;100145.47;;;8.35;81.18
23016;BME280;11674;52.428;13.584;2023-01-30T11:59:03;100167.06;;;8.28;81.05
23016;BME280;11674;52.428;13.584;2023-01-30T12:04:11;100155.78;;;8.25;81.10
23016;BME280;11674;52.428;13.584;2023-01-30T12:09:34;100142.72;;;8.35;81.21
23016;BME280;11674;52.428;13.584;2023-01-30T12:14:45;100135.47;;;8.39;81.06
23016;BME280;11674;52.428;13.584;2023-01-30T12:25:31;100164.13;;;8.15;80.25
23016;BME280;11674;52.428;13.584;2023-01-30T12:36:01;100136.06;;;6.67;80.63
23016;BME280;11674;52.428;13.584;2023-01-30T12:57:20;100152.88;;;7.73;81.74
23016;BME280;11674;52.428;13.584;2023-01-30T13:07:59;100125.44;;;9.56;78.97
23016;BME280;11674;52.428;13.584;2023-01-30T13:18:39;100112.56;;;8.62;79.68
23016;BME280;11674;52.428;13.584;2023-01-30T13:29:28;100104.84;;;8.36;79.63
23016;BME280;11674;52.428;13.584;2023-01-30T13:34:40;100111.25;;;8.31;79.87
23016;BME280;11674;52.428;13.584;2023-01-30T13:45:26;100081.16;;;8.30;80.26
23016;BME280;11674;52.428;13.584;2023-01-30T14:01:22;100078.59;;;7.76;78.79
23016;BME280;11674;52.428;13.584;2023-01-30T14:06:30;100089.03;;;7.07;79.40
23016;BME280;11674;52.428;13.584;2023-01-30T14:11:50;100099.34;;;6.77;80.77
23016;BME280;11674;52.428;13.584;2023-01-30T14:17:14;100118.16;;;6.65;81.65
23016;BME280;11674;52.428;13.584;2023-01-30T14:22:25;100153.44;;;6.58;81.73
23016;BME280;11674;52.428;13.584;2023-01-30T14:27:34;100151.06;;;6.21;81.27
23016;BME280;11674;52.428;13.584;2023-01-30T14:32:53;100160.97;;;5.97;81.95
23016;BME280;11674;52.428;13.584;2023-01-30T14:38:10;100174.44;;;5.94;82.61
23016;BME280;11674;52.428;13.584;2023-01-30T15:04:21;100237.22;;;6.27;81.75
23016;BME280;11674;52.428;13.584;2023-01-30T15:09:29;100255.66;;;6.16;81.89
23016;BME280;11674;52.428;13.584;2023-01-30T15:31:25;100248.22;;;6.17;82.55
23016;BME280;11674;52.428;13.584;2023-01-30T15:36:34;100275.50;;;6.18;82.44
23016;BME280;11674;52.428;13.584;2023-01-30T15:41:41;100280.72;;;6.25;82.51
23016;BME280;11674;52.428;13.584;2023-01-30T15:47:17;100286.25;;;6.35;82.70
23016;BME280;11674;52.428;13.584;2023-01-30T15:52:42;100295.31;;;6.45;83.03
23016;BME280;11674;52.428;13.584;2023-01-30T15:57:54;100298.63;;;6.52;83.01
23016;BME280;11674;52.428;13.584;2023-01-30T16:03:04;100296.72;;;6.58;83.06
23016;BME280;11674;52.428;13.584;2023-01-30T16:08:26;100294.50;;;6.60;83.01
23016;BME280;11674;52.428;13.584;2023-01-30T16:13:34;100287.88;;;6.61;83.05
23016;BME280;11674;52.428;13.584;2023-01-30T16:24:04;100308.84;;;6.67;83.19
23016;BME280;11674;52.428;13.584;2023-01-30T16:29:17;100303.31;;;6.72;82.96
23016;BME280;11674;52.428;13.584;2023-01-30T16:39:36;100365.56;;;6.43;82.22
23016;BME280;11674;52.428;13.584;2023-01-30T16:44:43;100337.44;;;6.26;82.69
23016;BME280;11674;52.428;13.584;2023-01-30T16:49:51;100347.31;;;6.12;82.83
23016;BME280;11674;52.428;13.584;2023-01-30T16:55:01;100361.63;;;6.04;83.13
23016;BME280;11674;52.428;13.584;2023-01-30T17:00:23;100356.66;;;6.01;83.50
23016;BME280;11674;52.428;13.584;2023-01-30T17:05:41;100375.13;;;6.00;83.63
23016;BME280;11674;52.428;13.584;2023-01-30T17:10:51;100376.78;;;6.06;83.81
23016;BME280;11674;52.428;13.584;2023-01-30T17:21:30;100418.72;;;6.33;83.69
23016;BME280;11674;52.428;13.584;2023-01-30T17:26:37;100420.91;;;6.41;83.46
23016;BME280;11674;52.428;13.584;2023-01-30T17:31:47;100420.94;;;6.46;83.29
23016;BME280;11674;52.428;13.584;2023-01-30T17:36:55;100417.09;;;6.52;83.30
23016;BME280;11674;52.428;13.584;2023-01-30T17:42:02;100440.25;;;6.56;83.09
23016;BME280;11674;52.428;13.584;2023-01-30T17:47:12;100463.13;;;6.62;83.17
23016;BME280;11674;52.428;13.584;2023-01-30T17:52:19;100454.59;;;6.68;83.18
23016;BME280;11674;52.428;13.584;2023-01-30T17:57:26;100460.38;;;6.77;83.30
23016;BME280;11674;52.428;13.584;2023-01-30T18:02:33;100476.41;;;6.85;83.24
23016;BME280;11674;52.428;13.584;2023-01-30T18:07:40;100486.59;;;6.94;83.64
23016;BME280;11674;52.428;13.584;2023-01-30T18:12:47;100490.22;;;7.05;83.45
23016;BME280;11674;52.428;13.584;2023-01-30T18:17:54;100503.19;;;7.09;83.45
23016;BME280;11674;52.428;13.584;2023-01-30T18:23:01;100519.19;;;7.17;83.31
23016;BME280;11674;52.428;13.584;2023-01-30T18:28:09;100534.91;;;7.27;83.30
23016;BME280;11674;52.428;13.584;2023-01-30T18:33:16;100515.88;;;7.35;83.32
23016;BME280;11674;52.428;13.584;2023-01-30T18:38:23;100544.28;;;7.46;83.03
23016;BME280;11674;52.428;13.584;2023-01-30T18:43:30;100548.72;;;7.52;82.96
23016;BME280;11674;52.428;13.584;2023-01-30T18:48:37;100547.91;;;7.56;82.88
23016;BME280;11674;52.428;13.584;2023-01-30T18:53:49;100571.34;;;7.59;82.73
23016;BME280;11674;52.428;13.584;2023-01-30T18:58:57;100576.31;;;7.62;82.77
23016;BME280;11674;52.428;13.584;2023-01-30T19:04:07;100597.31;;;7.63;82.88
23016;BME280;11674;52.428;13.584;2023-01-30T19:09:15;100608.34;;;7.68;82.84
23016;BME280;11674;52.428;13.584;2023-01-30T19:14:22;100597.84;;;7.70;83.12
23016;BME280;11674;52.428;13.584;2023-01-30T19:19:29;100583.22;;;7.69;83.16
23016;BME280;11674;52.428;13.584;2023-01-30T19:24:36;100631.25;;;7.73;83.16
23016;BME280;11674;52.428;13.584;2023-01-30T19:29:43;100649.47;;;7.74;83.20
23016;BME280;11674;52.428;13.584;2023-01-30T19:34:50;100658.59;;;7.75;83.29
23016;BME280;11674;52.428;13.584;2023-01-30T19:39:57;100675.16;;;7.75;83.18
23016;BME280;11674;52.428;13.584;2023-01-30T19:45:04;100689.22;;;7.73;83.17
23016;BME280;11674;52.428;13.584;2023-01-30T19:50:11;100709.09;;;7.70;83.18
23016;BME280;11674;52.428;13.584;2023-01-30T19:55:18;100712.94;;;7.69;83.14
23016;BME280;11674;52.428;13.584;2023-01-30T20:00:25;100722.06;;;7.65;83.04
23016;BME280;11674;52.428;13.584;2023-01-30T20:05:32;100717.63;;;7.59;83.02
23016;BME280;11674;52.428;13.584;2023-01-30T20:10:39;100720.34;;;7.49;82.85
23016;BME280;11674;52.428;13.584;2023-01-30T20:15:46;100737.16;;;7.42;82.84
23016;BME280;11674;52.428;13.584;2023-01-30T20:20:53;100751.53;;;7.39;83.02
23016;BME280;11674;52.428;13.584;2023-01-30T20:26:05;100750.94;;;7.37;83.20
23016;BME280;11674;52.428;13.584;2023-01-30T20:31:17;100759.22;;;7.37;83.19
23016;BME280;11674;52.428;13.584;2023-01-30T20:36:25;100770.53;;;7.31;83.16
23016;BME280;11674;52.428;13.584;2023-01-30T20:41:32;100771.56;;;7.25;83.08
23016;BME280;11674;52.428;13.584;2023-01-30T20:46:43;100769.91;;;7.24;83.30
23016;BME280;11674;52.428;13.584;2023-01-30T20:52:01;100784.31;;;7.31;83.65
23016;BME280;11674;52.428;13.584;2023-01-30T20:57:15;100803.34;;;7.32;83.44
23016;BME280;11674;52.428;13.584;2023-01-30T21:02:22;100804.69;;;7.30;83.43
23016;BME280;11674;52.428;13.584;2023-01-30T21:07:31;100822.94;;;7.31;83.64
23016;BME280;11674;52.428;13.584;2023-01-30T21:12:38;100850.25;;;7.37;83.54
23016;BME280;11674;52.428;13.584;2023-01-30T21:17:45;100839.22;;;7.37;83.48
23016;BME280;11674;52.428;13.584;2023-01-30T21:22:52;100860.75;;;7.35;83.43
23016;BME280;11674;52.428;13.584;2023-01-30T21:27:59;100853.59;;;7.39;83.67
23016;BME280;11674;52.428;13.584;2023-01-30T21:33:06;100877.06;;;7.42;83.37
23016;BME280;11674;52.428;13.584;2023-01-30T21:38:13;100892.53;;;7.43;83.46
23016;BME280;11674;52.428;13.584;2023-01-30T21:43:20;100890.56;;;7.38;83.09
23016;BME280;11674;52.428;13.584;2023-01-30T21:48:27;100900.16;;;7.26;83.13
23016;BME280;11674;52.428;13.584;2023-01-30T21:53:34;100909.75;;;7.18;83.19
23016;BME280;11674;52.428;13.584;2023-01-30T21:58:41;100912.72;;;7.12;83.14
23016;BME280;11674;52.428;13.584;2023-01-30T22:03:48;100929.78;;;7.04;83.03
23016;BME280;11674;52.428;13.584;2023-01-30T22:08:57;100958.97;;;7.00;83.20
23016;BME280;11674;52.428;13.584;2023-01-30T22:14:04;100966.94;;;6.96;83.21
23016;BME280;11674;52.428;13.584;2023-01-30T22:19:11;100957.25;;;6.94;83.24
23016;BME280;11674;52.428;13.584;2023-01-30T22:24:18;100980.03;;;6.84;82.96
23016;BME280;11674;52.428;13.584;2023-01-30T22:29:25;100975.25;;;6.75;82.94
23016;BME280;11674;52.428;13.584;2023-01-30T22:34:32;100975.72;;;6.67;83.07
23016;BME280;11674;52.428;13.584;2023-01-30T22:39:39;100991.19;;;6.68;83.26
23016;BME280;11674;52.428;13.584;2023-01-30T22:44:46;100996.94;;;6.66;83.23
23016;BME280;11674;52.428;13.584;2023-01-30T22:49:53;101013.16;;;6.63;83.04
23016;BME280;11674;52.428;13.584;2023-01-30T22:55:00;100991.56;;;6.55;83.09
23016;BME280;11674;52.428;13.584;2023-01-30T23:00:08;100999.22;;;6.48;82.94
23016;BME280;11674;52.428;13.584;2023-01-30T23:05:15;101018.44;;;6.43;83.04
23016;BME280;11674;52.428;13.584;2023-01-30T23:10:22;101029.38;;;6.38;83.17
23016;BME280;11674;52.428;13.584;2023-01-30T23:15:31;101023.00;;;6.32;83.01
23016;BME280;11674;52.428;13.584;2023-01-30T23:20:38;101019.09;;;6.28;83.18
23016;BME280;11674;52.428;13.584;2023-01-30T23:25:45;101012.09;;;6.21;82.94
23016;BME280;11674;52.428;13.584;2023-01-30T23:30:52;101023.88;;;6.16;83.19
23016;BME280;11674;52.428;13.584;2023-01-30T23:36:01;101023.03;;;6.16;83.14
23016;BME280;11674;52.428;13.584;2023-01-30T23:41:14;101037.31;;;6.13;83.15
23016;BME280;11674;52.428;13.584;2023-01-30T23:46:24;101026.81;;;6.10;83.21
23016;BME280;11674;52.428;13.584;2023-01-30T23:51:33;101032.56;;;6.08;83.35
23016;BME280;11674;52.428;13.584;2023-01-30T23:56:42;101046.59;;;6.07;83.22
